Time;durP1;ratioP1;P1;durP2;ratioP2;P2;SDS_P1;SDS_P2;PMS_P1;PMS_P2;Temp;Humidity;BMP_temperature;BMP_pressure;BME280_temperature;BME280_humidity;BME280_pressure;Samples;Min_cycle;Max_cycle;Signal;HPM_P1;HPM_P2
2021/07/15 00:01:46;;;;;;;;;;;;;;;;;;5031271;28;20421;-62
2021/07/15 00:04:11;;;;;;;;;;;;;;;;;;5031033;28;20319;-62
2021/07/15 00:06:37;;;;;;;;;;;;;;;;;;5031090;28;19920;-62
2021/07/15 00:09:03;;;;;;;;;;;;;;;;;;5030823;28;19939;-63
2021/07/15 00:11:28;;;;;;;;;;;;;;;;;;5031008;28;19920;-63
2021/07/15 00:13:55;;;;;;;;;;;;;;;;;;5031087;28;19946;-62
2021/07/15 00:16:21;;;;;;;;;;;;;;;;;;5033296;28;20401;-62
2021/07/15 00:18:47;;;;;;;;;;;;;;;;;;5034525;28;19998;-62
2021/07/15 00:21:14;;;;;;;;;;;;;;;;;;5034888;28;20310;-63
2021/07/15 00:23:40;;;;;;;;;;;;;;;;;;5034968;28;19909;-62
2021/07/15 00:26:07;;;;;;;;;;;;;;;;;;5034552;28;19996;-62
2021/07/15 00:28:32;;;;;;;;;;;;;;;;;;5034599;28;19959;-63
2021/07/15 00:30:58;;;;;;;;;;;;;;;;;;5034753;28;19921;-62
2021/07/15 00:33:23;;;;;;;;;;;;;;;;;;5034640;28;19987;-61
2021/07/15 00:35:48;;;;;;;;;;;;;;;;;;5034436;28;19917;-61
2021/07/15 00:38:13;;;;;;;;;;;;;;;;;;5034064;28;19979;-62
2021/07/15 00:40:39;;;;;;;;;;;;;;;;;;5034428;28;19956;-61
2021/07/15 00:43:04;;;;;;;;;;;;;;;;;;5032864;28;19921;-62
2021/07/15 00:45:30;;;;;;;;;;;;;;;;;;5034346;28;20447;-62
2021/07/15 00:47:56;;;;;;;;;;;;;;;;;;5034058;28;19983;-62
2021/07/15 00:50:22;;;;;;;;;;;;;;;;;;5034787;28;19925;-62
2021/07/15 00:52:50;;;;;;;;;;;;;;;;;;5035131;28;20252;-63
2021/07/15 00:55:24;;;;;;;;;;;;;;;;;;5037448;28;19967;-62
2021/07/15 00:57:50;;;;;;;;;;;;;;;;;;5035723;28;20371;-62
2021/07/15 01:00:16;;;;;;;;;;;;;;;;;;5034085;28;19913;-63
2021/07/15 01:02:42;;;;;;;;;;;;;;;;;;5034142;28;19913;-63
2021/07/15 01:05:20;;;;;;;;;;;;;;;;;;5030725;28;19983;-62
2021/07/15 01:07:46;;;;;;;;;;;;;;;;;;5033549;28;20048;-63
2021/07/15 01:10:12;;;;;;;;;;;;;;;;;;5033904;28;20371;-62
2021/07/15 01:12:40;;;;;;;;;;;;;;;;;;5033681;28;19963;-63
2021/07/15 01:15:13;;;;;;;;;;;;;;;;;;5033551;28;20353;-62
2021/07/15 01:17:53;;;;;;;;;;;;;;;;;;5033332;28;19923;-63
2021/07/15 01:20:38;;;;;;;;;;;;;;;;;;5033563;28;19913;-62
2021/07/15 01:23:19;;;;;;;;;;;;;;;;;;5033398;28;20402;-62
2021/07/15 01:25:54;;;;;;;;;;;;;;;;;;5033433;28;19917;-61
2021/07/15 01:28:24;;;;;;;;;;;;;;;;;;5033201;28;20322;-61
2021/07/15 01:30:52;;;;;;;;;;;;;;;;;;5033501;28;19960;-62
2021/07/15 01:33:17;;;;;;;;;;;;;;;;;;5033223;28;20335;-62
2021/07/15 01:35:44;;;;;;;;;;;;;;;;;;5033140;28;19948;-62
2021/07/15 01:38:11;;;;;;;;;;;;;;;;;;5033072;28;20039;-63
2021/07/15 01:40:40;;;;;;;;;;;;;;;;;;5033088;28;19913;-63
2021/07/15 01:43:07;;;;;;;;;;;;;;;;;;5032948;28;19917;-62
2021/07/15 01:45:32;;;;;;;;;;;;;;;;;;5033141;28;20000;-61
2021/07/15 01:47:58;;;;;;;;;;;;;;;;;;5032923;28;20224;-62
2021/07/15 01:50:23;;;;;;;;;;;;;;;;;;5033159;28;19959;-62
2021/07/15 01:52:50;;;;;;;;;;;;;;;;;;5032841;28;19913;-62
2021/07/15 01:55:15;;;;;;;;;;;;;;;;;;5032702;28;19943;-61
2021/07/15 01:57:42;;;;;;;;;;;;;;;;;;5032702;28;19913;-60
2021/07/15 02:00:07;;;;;;;;;;;;;;;;;;5033056;28;19913;-62
2021/07/15 02:02:34;;;;;;;;;;;;;;;;;;5029626;28;19921;-62
2021/07/15 02:04:59;;;;;;;;;;;;;;;;;;5032735;28;19913;-62
2021/07/15 02:07:26;;;;;;;;;;;;;;;;;;5032445;28;19917;-62
2021/07/15 02:09:52;;;;;;;;;;;;;;;;;;5032522;28;19924;-61
2021/07/15 02:12:19;;;;;;;;;;;;;;;;;;5032395;28;19913;-63
2021/07/15 02:14:45;;;;;;;;;;;;;;;;;;5032389;28;19921;-62
2021/07/15 02:17:12;;;;;;;;;;;;;;;;;;5032661;28;19913;-62
2021/07/15 02:19:37;;;;;;;;;;;;;;;;;;5032238;28;20024;-64
2021/07/15 02:22:02;;;;;;;;;;;;;;;;;;5032253;28;20011;-62
2021/07/15 02:24:29;;;;;;;;;;;;;;;;;;5032284;28;19917;-61
2021/07/15 02:26:56;;;;;;;;;;;;;;;;;;5032264;28;19943;-62
2021/07/15 02:29:21;;;;;;;;;;;;;;;;;;5032224;28;19913;-61
2021/07/15 02:31:48;;;;;;;;;;;;;;;;;;5032066;28;19943;-62
2021/07/15 02:34:32;;;;;;;;;;;;;;;;;;5032119;28;19940;-61
2021/07/15 02:36:58;;;;;;;;;;;;;;;;;;5032063;28;20193;-61
2021/07/15 02:39:23;;;;;;;;;;;;;;;;;;5031039;28;20330;-63
2021/07/15 02:41:49;;;;;;;;;;;;;;;;;;5031820;28;19917;-61
2021/07/15 02:44:14;;;;;;;;;;;;;;;;;;5031911;28;19913;-62
2021/07/15 02:46:39;;;;;;;;;;;;;;;;;;5031996;28;19955;-62
2021/07/15 02:49:05;;;;;;;;;;;;;;;;;;5031743;28;20299;-63
2021/07/15 02:51:30;;;;;;;;;;;;;;;;;;5032065;28;19956;-62
2021/07/15 02:53:55;;;;;;;;;;;;;;;;;;5031900;28;19913;-61
2021/07/15 02:56:40;;;;;;;;;;;;;;;;;;5031736;28;20291;-62
2021/07/15 02:59:08;;;;;;;;;;;;;;;;;;5031791;28;19946;-62
2021/07/15 03:01:43;;;;;;;;;;;;;;;;;;5027378;28;19960;-63
2021/07/15 03:04:15;;;;;;;;;;;;;;;;;;5031247;28;19913;-62
2021/07/15 03:06:43;;;;;;;;;;;;;;;;;;5031763;28;19920;-62
2021/07/15 03:09:13;;;;;;;;;;;;;;;;;;5031550;28;19936;-61
2021/07/15 03:12:01;;;;;;;;;;;;;;;;;;5031553;28;19920;-63
2021/07/15 03:14:27;;;;;;;;;;;;;;;;;;5031281;28;20310;-62
2021/07/15 03:16:52;;;;;;;;;;;;;;;;;;5031580;28;20267;-62
2021/07/15 03:19:18;;;;;;;;;;;;;;;;;;5031378;28;19913;-62
2021/07/15 03:21:44;;;;;;;;;;;;;;;;;;5031359;28;20008;-62
2021/07/15 03:24:10;;;;;;;;;;;;;;;;;;5031435;28;19913;-62
2021/07/15 03:26:36;;;;;;;;;;;;;;;;;;5031473;28;20364;-62
2021/07/15 03:29:02;;;;;;;;;;;;;;;;;;5031062;28;19956;-62
2021/07/15 03:31:28;;;;;;;;;;;;;;;;;;5031304;28;19913;-61
2021/07/15 03:33:54;;;;;;;;;;;;;;;;;;5031574;28;20367;-62
2021/07/15 03:36:20;;;;;;;;;;;;;;;;;;5031279;28;19921;-61
2021/07/15 03:38:46;;;;;;;;;;;;;;;;;;5031205;28;19920;-61
2021/07/15 03:41:12;;;;;;;;;;;;;;;;;;5031030;28;19964;-61
2021/07/15 03:43:39;;;;;;;;;;;;;;;;;;5031137;28;19913;-63
2021/07/15 03:46:05;;;;;;;;;;;;;;;;;;5031287;28;19970;-61
2021/07/15 03:48:31;;;;;;;;;;;;;;;;;;5031330;28;19956;-63
2021/07/15 03:50:58;;;;;;;;;;;;;;;;;;5034377;28;19920;-63
2021/07/15 03:53:24;;;;;;;;;;;;;;;;;;5035200;28;19913;-61
2021/07/15 03:55:50;;;;;;;;;;;;;;;;;;5034998;28;20008;-62
2021/07/15 03:58:15;;;;;;;;;;;;;;;;;;5031864;28;20047;-62
2021/07/15 04:00:45;;;;;;;;;;;;;;;;;;5035086;28;19924;-62
2021/07/15 04:03:10;;;;;;;;;;;;;;;;;;5035142;28;20282;-62
2021/07/15 04:05:36;;;;;;;;;;;;;;;;;;5035158;28;20015;-61
2021/07/15 04:08:03;;;;;;;;;;;;;;;;;;5035188;28;19913;-62
2021/07/15 04:10:29;;;;;;;;;;;;;;;;;;5035212;28;19917;-62
2021/07/15 04:12:55;;;;;;;;;;;;;;;;;;5036964;28;19913;-62
2021/07/15 04:15:22;;;;;;;;;;;;;;;;;;5038146;28;19917;-62
2021/07/15 04:17:55;;;;;;;;;;;;;;;;;;5035834;28;20042;-62
2021/07/15 04:20:22;;;;;;;;;;;;;;;;;;5034712;28;20384;-62
2021/07/15 04:22:49;;;;;;;;;;;;;;;;;;5034677;28;19979;-62
2021/07/15 04:25:16;;;;;;;;;;;;;;;;;;5034514;28;19949;-62
2021/07/15 04:27:42;;;;;;;;;;;;;;;;;;5034412;28;19913;-63
2021/07/15 04:30:08;;;;;;;;;;;;;;;;;;5034543;28;19964;-62
2021/07/15 04:32:37;;;;;;;;;;;;;;;;;;5034483;28;19967;-63
2021/07/15 04:35:04;;;;;;;;;;;;;;;;;;5034459;28;20375;-63
2021/07/15 04:37:29;;;;;;;;;;;;;;;;;;5034154;28;19936;-63
2021/07/15 04:39:54;;;;;;;;;;;;;;;;;;5034281;28;20295;-62
2021/07/15 04:42:21;;;;;;;;;;;;;;;;;;5034631;28;19928;-61
2021/07/15 04:44:47;;;;;;;;;;;;;;;;;;5035008;28;19920;-61
2021/07/15 04:47:13;;;;;;;;;;;;;;;;;;5034224;28;19913;-62
2021/07/15 04:49:38;;;;;;;;;;;;;;;;;;5034081;28;19919;-63
2021/07/15 04:52:03;;;;;;;;;;;;;;;;;;5033985;28;19984;-62
2021/07/15 04:54:29;;;;;;;;;;;;;;;;;;5030912;28;19924;-62
2021/07/15 04:56:55;;;;;;;;;;;;;;;;;;5033939;28;19917;-63
2021/07/15 04:59:20;;;;;;;;;;;;;;;;;;5034129;28;19913;-62
2021/07/15 05:01:45;;;;;;;;;;;;;;;;;;5033161;28;19913;-62
2021/07/15 05:04:11;;;;;;;;;;;;;;;;;;5033812;28;19979;-62
2021/07/15 05:06:36;;;;;;;;;;;;;;;;;;5033821;28;20387;-62
2021/07/15 05:09:01;;;;;;;;;;;;;;;;;;5033830;28;19941;-63
2021/07/15 05:11:27;;;;;;;;;;;;;;;;;;5033580;28;20448;-62
2021/07/15 05:13:52;;;;;;;;;;;;;;;;;;5033714;28;19996;-62
2021/07/15 05:16:17;;;;;;;;;;;;;;;;;;5033432;28;19918;-62
2021/07/15 05:18:42;;;;;;;;;;;;;;;;;;5033435;28;19913;-62
2021/07/15 05:21:08;;;;;;;;;;;;;;;;;;5033847;28;19913;-62
2021/07/15 05:23:33;;;;;;;;;;;;;;;;;;5033679;28;19913;-62
2021/07/15 05:25:58;;;;;;;;;;;;;;;;;;5033419;28;19913;-62
2021/07/15 05:28:25;;;;;;;;;;;;;;;;;;5033277;28;19982;-62
2021/07/15 05:30:51;;;;;;;;;;;;;;;;;;5033382;28;19913;-61
2021/07/15 05:33:16;;;;;;;;;;;;;;;;;;5033262;28;19913;-62
2021/07/15 05:35:42;;;;;;;;;;;;;;;;;;5033179;28;19917;-62
2021/07/15 05:38:08;;;;;;;;;;;;;;;;;;5032995;28;19913;-62
2021/07/15 05:40:33;;;;;;;;;;;;;;;;;;5033114;28;20398;-61
2021/07/15 05:42:58;;;;;;;;;;;;;;;;;;5032988;28;19927;-61
2021/07/15 05:45:24;;;;;;;;;;;;;;;;;;5033082;28;19943;-62
2021/07/15 05:47:49;;;;;;;;;;;;;;;;;;5032827;28;19967;-63
2021/07/15 05:50:14;;;;;;;;;;;;;;;;;;5029918;28;19913;-62
2021/07/15 05:52:39;;;;;;;;;;;;;;;;;;5032679;28;20287;-62
2021/07/15 05:55:05;;;;;;;;;;;;;;;;;;5032638;28;19971;-61
2021/07/15 05:57:32;;;;;;;;;;;;;;;;;;5032805;28;19913;-61
2021/07/15 05:59:58;;;;;;;;;;;;;;;;;;5032877;28;19913;-61
2021/07/15 06:02:23;;;;;;;;;;;;;;;;;;5032632;28;19917;-62
2021/07/15 06:04:48;;;;;;;;;;;;;;;;;;5032662;28;20302;-62
2021/07/15 06:07:13;;;;;;;;;;;;;;;;;;5032590;28;20046;-64
2021/07/15 06:09:39;;;;;;;;;;;;;;;;;;5032475;28;20008;-62
2021/07/15 06:12:04;;;;;;;;;;;;;;;;;;5032325;28;20021;-61
2021/07/15 06:14:30;;;;;;;;;;;;;;;;;;5032509;28;19927;-62
2021/07/15 06:16:55;;;;;;;;;;;;;;;;;;5032443;28;19913;-61
2021/07/15 06:19:20;;;;;;;;;;;;;;;;;;5032129;28;20320;-61
2021/07/15 06:21:45;;;;;;;;;;;;;;;;;;5032657;28;19924;-62
2021/07/15 06:24:11;;;;;;;;;;;;;;;;;;5032300;28;19913;-62
2021/07/15 06:26:36;;;;;;;;;;;;;;;;;;5032258;28;19921;-64
2021/07/15 06:29:02;;;;;;;;;;;;;;;;;;5032153;28;20007;-61
2021/07/15 06:31:27;;;;;;;;;;;;;;;;;;5032100;28;19979;-61
2021/07/15 06:33:52;;;;;;;;;;;;;;;;;;5032193;28;19913;-63
2021/07/15 06:36:17;;;;;;;;;;;;;;;;;;5032040;28;19924;-62
2021/07/15 06:38:42;;;;;;;;;;;;;;;;;;5031860;28;19923;-62
2021/07/15 06:41:09;;;;;;;;;;;;;;;;;;5031763;28;19917;-62
2021/07/15 06:43:34;;;;;;;;;;;;;;;;;;5031909;28;20000;-62
2021/07/15 06:46:00;;;;;;;;;;;;;;;;;;5030698;28;19913;-62
2021/07/15 06:48:25;;;;;;;;;;;;;;;;;;5031981;28;19913;-62
2021/07/15 06:50:51;;;;;;;;;;;;;;;;;;5031116;28;20390;-62
2021/07/15 06:53:16;;;;;;;;;;;;;;;;;;5031652;28;20298;-62
2021/07/15 06:55:42;;;;;;;;;;;;;;;;;;5038139;28;19959;-62
2021/07/15 06:58:07;;;;;;;;;;;;;;;;;;5034720;28;19940;-61
2021/07/15 07:00:32;;;;;;;;;;;;;;;;;;5031706;28;19913;-61
2021/07/15 07:02:58;;;;;;;;;;;;;;;;;;5031866;28;19913;-61
2021/07/15 07:05:23;;;;;;;;;;;;;;;;;;5025030;28;19963;-62
2021/07/15 07:07:48;;;;;;;;;;;;;;;;;;5033629;28;20258;-60
2021/07/15 07:10:15;;;;;;;;;;;;;;;;;;5031666;28;20357;-61
2021/07/15 07:12:40;;;;;;;;;;;;;;;;;;5031469;28;19913;-62
2021/07/15 07:15:07;;;;;;;;;;;;;;;;;;5031905;28;19924;-62
2021/07/15 07:17:32;;;;;;;;;;;;;;;;;;5029287;28;19940;-61
2021/07/15 07:19:57;;;;;;;;;;;;;;;;;;5029644;28;20383;-63
2021/07/15 07:22:22;;;;;;;;;;;;;;;;;;5034808;28;20100;-62
2021/07/15 07:24:47;;;;;;;;;;;;;;;;;;5031387;28;19917;-61
2021/07/15 07:27:13;;;;;;;;;;;;;;;;;;5042521;28;19936;-62
2021/07/15 07:29:38;;;;;;;;;;;;;;;;;;5049680;28;19920;-63
2021/07/15 07:32:03;;;;;;;;;;;;;;;;;;5040660;28;20051;-63
2021/07/15 07:34:28;;;;;;;;;;;;;;;;;;5018118;28;19917;-63
2021/07/15 07:36:54;;;;;;;;;;;;;;;;;;5021405;28;20513;-63
2021/07/15 07:39:19;;;;;;;;;;;;;;;;;;5032272;28;19994;-63
2021/07/15 07:41:44;;;;;;;;;;;;;;;;;;5043509;28;20338;-64
2021/07/15 07:44:10;;;;;;;;;;;;;;;;;;5026665;28;19923;-64
2021/07/15 07:46:36;;;;;;;;;;;;;;;;;;5035669;28;19940;-63
2021/07/15 07:49:01;;;;;;;;;;;;;;;;;;5039634;28;20336;-59
2021/07/15 07:51:28;;;;;;;;;;;;;;;;;;5039374;28;20000;-62
2021/07/15 07:53:55;;;;;;;;;;;;;;;;;;5031080;28;19916;-62
2021/07/15 07:56:20;;;;;;;;;;;;;;;;;;5035793;28;20011;-63
2021/07/15 07:58:45;;;;;;;;;;;;;;;;;;5039903;28;20003;-62
2021/07/15 08:01:10;;;;;;;;;;;;;;;;;;5042101;28;19913;-63
2021/07/15 08:03:35;;;;;;;;;;;;;;;;;;5038089;28;19917;-61
2021/07/15 08:06:01;;;;;;;;;;;;;;;;;;5036287;28;20371;-59
2021/07/15 08:08:27;;;;;;;;;;;;;;;;;;5045630;28;19920;-62
2021/07/15 08:10:52;;;;;;;;;;;;;;;;;;5044149;28;20318;-64
2021/07/15 08:13:18;;;;;;;;;;;;;;;;;;5023314;28;19913;-62
2021/07/15 08:15:43;;;;;;;;;;;;;;;;;;5030283;28;19921;-64
2021/07/15 08:18:08;;;;;;;;;;;;;;;;;;5029637;28;19928;-64
2021/07/15 08:20:33;;;;;;;;;;;;;;;;;;5023215;28;19917;-62
2021/07/15 08:22:59;;;;;;;;;;;;;;;;;;5011108;28;19925;-65
2021/07/15 08:25:24;;;;;;;;;;;;;;;;;;5010539;28;19917;-64
2021/07/15 08:27:50;;;;;;;;;;;;;;;;;;5008694;28;19914;-64
2021/07/15 08:30:16;;;;;;;;;;;;;;;;;;5025739;28;19919;-63
2021/07/15 08:32:42;;;;;;;;;;;;;;;;;;5029926;28;19917;-63
2021/07/15 08:35:07;;;;;;;;;;;;;;;;;;5028690;28;20410;-64
2021/07/15 08:37:33;;;;;;;;;;;;;;;;;;5029336;28;20387;-64
2021/07/15 08:39:59;;;;;;;;;;;;;;;;;;5027874;28;19921;-65
2021/07/15 08:42:24;;;;;;;;;;;;;;;;;;5032635;28;20303;-65
2021/07/15 08:44:50;;;;;;;;;;;;;;;;;;5033635;28;19917;-65
2021/07/15 08:47:15;;;;;;;;;;;;;;;;;;5032582;28;19968;-64
2021/07/15 08:49:41;;;;;;;;;;;;;;;;;;5032984;28;19921;-64
2021/07/15 08:52:06;;;;;;;;;;;;;;;;;;5033234;28;20319;-64
2021/07/15 08:54:48;;;;;;;;;;;;;;;;;;5043208;28;19962;-65
2021/07/15 08:57:14;;;;;;;;;;;;;;;;;;5039482;28;19995;-65
2021/07/15 08:59:39;;;;;;;;;;;;;;;;;;5032766;28;19917;-64
2021/07/15 09:02:05;;;;;;;;;;;;;;;;;;5017689;28;20295;-63
2021/07/15 09:04:30;;;;;;;;;;;;;;;;;;5032180;28;19921;-62
2021/07/15 09:06:56;;;;;;;;;;;;;;;;;;5033168;28;19966;-63
2021/07/15 09:09:21;;;;;;;;;;;;;;;;;;5032107;28;20236;-64
2021/07/15 09:11:47;;;;;;;;;;;;;;;;;;5031462;28;20079;-64
2021/07/15 09:14:19;;;;;;;;;;;;;;;;;;5025896;28;19925;-63
2021/07/15 09:16:48;;;;;;;;;;;;;;;;;;5037397;28;19932;-62
2021/07/15 09:19:14;;;;;;;;;;;;;;;;;;5032179;28;19917;-63
2021/07/15 09:21:40;;;;;;;;;;;;;;;;;;5035895;28;19916;-65
2021/07/15 09:24:24;;;;;;;;;;;;;;;;;;5038609;28;19932;-62
2021/07/15 09:26:49;;;;;;;;;;;;;;;;;;5032541;28;19917;-63
2021/07/15 09:29:15;;;;;;;;;;;;;;;;;;5032363;28;20020;-64
2021/07/15 09:31:54;;;;;;;;;;;;;;;;;;5032106;28;19917;-63
2021/07/15 09:34:23;;;;;;;;;;;;;;;;;;5041103;28;19999;-62
2021/07/15 09:36:49;;;;;;;;;;;;;;;;;;5037244;28;19956;-63
2021/07/15 09:39:15;;;;;;;;;;;;;;;;;;5036237;28;19924;-63
2021/07/15 09:41:40;;;;;;;;;;;;;;;;;;5032125;28;19957;-63
2021/07/15 09:44:06;;;;;;;;;;;;;;;;;;5036184;28;19975;-63
2021/07/15 09:46:34;;;;;;;;;;;;;;;;;;5035700;28;20259;-63
2021/07/15 09:49:08;;;;;;;;;;;;;;;;;;5037444;28;19932;-64
2021/07/15 09:51:45;;;;;;;;;;;;;;;;;;5028605;28;20409;-64
2021/07/15 09:54:10;;;;;;;;;;;;;;;;;;5027143;28;19917;-62
2021/07/15 09:56:42;;;;;;;;;;;;;;;;;;5038294;28;19985;-62
2021/07/15 09:59:07;;;;;;;;;;;;;;;;;;5032741;28;19939;-63
2021/07/15 10:01:32;;;;;;;;;;;;;;;;;;5040580;28;20369;-64
2021/07/15 10:04:02;;;;;;;;;;;;;;;;;;5033359;28;19917;-62
2021/07/15 10:06:41;;;;;;;;;;;;;;;;;;5034361;28;19917;-61
2021/07/15 10:09:08;;;;;;;;;;;;;;;;;;5031447;28;19917;-63
2021/07/15 10:11:36;;;;;;;;;;;;;;;;;;5031448;28;19932;-63
2021/07/15 10:14:01;;;;;;;;;;;;;;;;;;5032129;28;19979;-64
2021/07/15 10:16:27;;;;;;;;;;;;;;;;;;5031890;28;20384;-61
2021/07/15 10:18:52;;;;;;;;;;;;;;;;;;5063128;28;19917;-63
2021/07/15 10:21:22;;;;;;;;;;;;;;;;;;5023817;28;19924;-64
2021/07/15 10:23:48;;;;;;;;;;;;;;;;;;5032370;28;20394;-61
2021/07/15 10:26:14;;;;;;;;;;;;;;;;;;5040585;28;19966;-63
2021/07/15 10:28:43;;;;;;;;;;;;;;;;;;5022389;28;19924;-62
2021/07/15 10:31:08;;;;;;;;;;;;;;;;;;5014953;28;19913;-62
2021/07/15 10:33:34;;;;;;;;;;;;;;;;;;5025569;28;20298;-62
2021/07/15 10:36:00;;;;;;;;;;;;;;;;;;5030006;28;19928;-61
2021/07/15 10:38:26;;;;;;;;;;;;;;;;;;5030899;28;19921;-62
2021/07/15 10:40:51;;;;;;;;;;;;;;;;;;5032575;28;20385;-63
2021/07/15 10:43:17;;;;;;;;;;;;;;;;;;5030621;28;19920;-61
2021/07/15 10:45:42;;;;;;;;;;;;;;;;;;5037268;28;19913;-63
2021/07/15 10:48:09;;;;;;;;;;;;;;;;;;5031813;28;19917;-64
2021/07/15 10:50:34;;;;;;;;;;;;;;;;;;5030479;28;19913;-63
2021/07/15 10:52:59;;;;;;;;;;;;;;;;;;5030902;28;19917;-64
2021/07/15 10:55:25;;;;;;;;;;;;;;;;;;5027079;28;19927;-62
2021/07/15 10:57:51;;;;;;;;;;;;;;;;;;5029750;28;19919;-63
2021/07/15 11:00:20;;;;;;;;;;;;;;;;;;5030441;28;20413;-63
2021/07/15 11:02:45;;;;;;;;;;;;;;;;;;5029293;28;19931;-63
2021/07/15 11:05:23;;;;;;;;;;;;;;;;;;5030940;28;19917;-61
2021/07/15 11:07:48;;;;;;;;;;;;;;;;;;5029668;28;20383;-62
2021/07/15 11:10:18;;;;;;;;;;;;;;;;;;5031079;28;19972;-64
2021/07/15 11:13:04;;;;;;;;;;;;;;;;;;5030507;28;19920;-63
2021/07/15 11:15:48;;;;;;;;;;;;;;;;;;5023405;28;20342;-62
2021/07/15 11:18:32;;;;;;;;;;;;;;;;;;5032330;28;20306;-63
2021/07/15 11:21:16;;;;;;;;;;;;;;;;;;5030485;28;19944;-59
2021/07/15 11:23:41;;;;;;;;;;;;;;;;;;5030414;28;19920;-62
2021/07/15 11:26:26;;;;;;;;;;;;;;;;;;5025196;28;19925;-63
2021/07/15 11:28:51;;;;;;;;;;;;;;;;;;5026307;28;19913;-64
2021/07/15 11:31:36;;;;;;;;;;;;;;;;;;5030786;28;19913;-62
2021/07/15 11:34:01;;;;;;;;;;;;;;;;;;5019915;28;19913;-63
2021/07/15 11:36:26;;;;;;;;;;;;;;;;;;5029460;28;19993;-61
2021/07/15 11:38:52;;;;;;;;;;;;;;;;;;5029378;28;19920;-60
2021/07/15 11:41:17;;;;;;;;;;;;;;;;;;5030819;28;20386;-58
2021/07/15 11:43:46;;;;;;;;;;;;;;;;;;5031593;28;19917;-59
2021/07/15 11:46:13;;;;;;;;;;;;;;;;;;5031293;28;19917;-59
2021/07/15 11:48:46;;;;;;;;;;;;;;;;;;5031336;28;20316;-60
2021/07/15 11:51:25;;;;;;;;;;;;;;;;;;5029031;28;19992;-61
2021/07/15 11:54:08;;;;;;;;;;;;;;;;;;5032108;28;19913;-59
2021/07/15 11:56:34;;;;;;;;;;;;;;;;;;5031076;28;19917;-60
2021/07/15 11:58:59;;;;;;;;;;;;;;;;;;5030877;28;19967;-59
2021/07/15 12:01:32;;;;;;;;;;;;;;;;;;5030843;28;20248;-61
2021/07/15 12:04:01;;;;;;;;;;;;;;;;;;5030955;28;20399;-59
2021/07/15 12:06:26;;;;;;;;;;;;;;;;;;5031108;28;19913;-60
2021/07/15 12:08:51;;;;;;;;;;;;;;;;;;5030820;28;19963;-59
2021/07/15 12:11:20;;;;;;;;;;;;;;;;;;5032953;28;20008;-59
2021/07/15 12:13:52;;;;;;;;;;;;;;;;;;5035067;28;19920;-59
2021/07/15 12:16:20;;;;;;;;;;;;;;;;;;5034727;28;19917;-59
2021/07/15 12:18:46;;;;;;;;;;;;;;;;;;5034688;28;19913;-60
2021/07/15 12:21:12;;;;;;;;;;;;;;;;;;5034884;28;19939;-60
2021/07/15 12:23:40;;;;;;;;;;;;;;;;;;5034882;28;19913;-60
2021/07/15 12:26:07;;;;;;;;;;;;;;;;;;5034657;28;20378;-59
2021/07/15 12:28:32;;;;;;;;;;;;;;;;;;5034375;28;19913;-60
2021/07/15 12:31:09;;;;;;;;;;;;;;;;;;5034568;28;19936;-59
2021/07/15 12:33:44;;;;;;;;;;;;;;;;;;5034546;28;19920;-61
2021/07/15 12:36:14;;;;;;;;;;;;;;;;;;5034386;28;20382;-60
2021/07/15 12:38:39;;;;;;;;;;;;;;;;;;5034146;28;19913;-60
2021/07/15 12:41:12;;;;;;;;;;;;;;;;;;5033837;28;19923;-60
2021/07/15 12:43:39;;;;;;;;;;;;;;;;;;5034492;28;19913;-60
2021/07/15 12:46:08;;;;;;;;;;;;;;;;;;5034275;28;20000;-61
2021/07/15 12:48:37;;;;;;;;;;;;;;;;;;5034310;28;19939;-60
2021/07/15 12:51:03;;;;;;;;;;;;;;;;;;5034489;28;19940;-60
2021/07/15 12:53:34;;;;;;;;;;;;;;;;;;5034034;28;19913;-60
2021/07/15 12:56:00;;;;;;;;;;;;;;;;;;5034087;28;19913;-61
2021/07/15 12:58:25;;;;;;;;;;;;;;;;;;5033782;28;20425;-59
2021/07/15 13:00:51;;;;;;;;;;;;;;;;;;5034022;28;20375;-58
2021/07/15 13:03:18;;;;;;;;;;;;;;;;;;5033858;28;19960;-60
2021/07/15 13:05:45;;;;;;;;;;;;;;;;;;5033124;28;19917;-60
2021/07/15 13:08:11;;;;;;;;;;;;;;;;;;5031248;28;20303;-59
2021/07/15 13:15:52;;;;;;;;;;;;;;;;;;5033895;28;20437;-59
2021/07/15 13:18:17;;;;;;;;;;;;;;;;;;5033642;28;20397;-60
2021/07/15 13:20:43;;;;;;;;;;;;;;;;;;5033629;28;19913;-59
2021/07/15 13:23:09;;;;;;;;;;;;;;;;;;5032987;28;19917;-61
2021/07/15 13:25:34;;;;;;;;;;;;;;;;;;5033786;28;19923;-61
2021/07/15 13:28:18;;;;;;;;;;;;;;;;;;5033605;28;19960;-57
2021/07/15 13:30:44;;;;;;;;;;;;;;;;;;5034069;28;19913;-59
2021/07/15 13:33:13;;;;;;;;;;;;;;;;;;5033644;28;19913;-59
2021/07/15 13:35:38;;;;;;;;;;;;;;;;;;5033576;28;19917;-60
2021/07/15 13:38:04;;;;;;;;;;;;;;;;;;5033761;28;19913;-61
2021/07/15 13:40:32;;;;;;;;;;;;;;;;;;5033609;28;19913;-57
2021/07/15 13:43:02;;;;;;;;;;;;;;;;;;5030110;28;19917;-61
2021/07/15 13:45:27;;;;;;;;;;;;;;;;;;5033391;28;20298;-59
2021/07/15 13:47:52;;;;;;;;;;;;;;;;;;5033672;28;19924;-60
2021/07/15 13:50:22;;;;;;;;;;;;;;;;;;5034120;28;19992;-59
2021/07/15 13:52:50;;;;;;;;;;;;;;;;;;5034153;28;19961;-59
2021/07/15 13:55:17;;;;;;;;;;;;;;;;;;5033688;28;19917;-58
2021/07/15 13:57:43;;;;;;;;;;;;;;;;;;5033648;28;20139;-59
2021/07/15 14:00:18;;;;;;;;;;;;;;;;;;5034221;28;19919;-60
2021/07/15 14:02:45;;;;;;;;;;;;;;;;;;5033940;28;20453;-59
2021/07/15 14:05:10;;;;;;;;;;;;;;;;;;5033367;28;20348;-59
2021/07/15 14:07:36;;;;;;;;;;;;;;;;;;5032775;28;20004;-60
2021/07/15 14:10:05;;;;;;;;;;;;;;;;;;5034419;28;20391;-60
2021/07/15 14:12:30;;;;;;;;;;;;;;;;;;5034774;28;19913;-60
2021/07/15 14:14:55;;;;;;;;;;;;;;;;;;5032877;28;20328;-59
2021/07/15 14:17:21;;;;;;;;;;;;;;;;;;5032552;28;19913;-60
2021/07/15 14:19:47;;;;;;;;;;;;;;;;;;5032951;28;19920;-58
2021/07/15 14:22:12;;;;;;;;;;;;;;;;;;5032507;28;19916;-58
2021/07/15 14:24:37;;;;;;;;;;;;;;;;;;5032642;28;20004;-60
2021/07/15 14:27:03;;;;;;;;;;;;;;;;;;5032503;28;19963;-60
2021/07/15 14:29:28;;;;;;;;;;;;;;;;;;5032072;28;19917;-60
2021/07/15 14:31:53;;;;;;;;;;;;;;;;;;5032196;28;19914;-61
2021/07/15 14:34:19;;;;;;;;;;;;;;;;;;5031242;28;20005;-60
2021/07/15 14:36:44;;;;;;;;;;;;;;;;;;5032473;28;20059;-58
2021/07/15 14:39:09;;;;;;;;;;;;;;;;;;5031908;28;19940;-58
2021/07/15 14:41:34;;;;;;;;;;;;;;;;;;5032150;28;19925;-59
2021/07/15 14:44:00;;;;;;;;;;;;;;;;;;5032113;28;19913;-59
2021/07/15 14:46:25;;;;;;;;;;;;;;;;;;5032105;28;19936;-60
2021/07/15 14:48:50;;;;;;;;;;;;;;;;;;5031828;28;19913;-60
2021/07/15 14:51:15;;;;;;;;;;;;;;;;;;5031874;28;20015;-60
2021/07/15 14:53:40;;;;;;;;;;;;;;;;;;5032000;28;19913;-60
2021/07/15 14:56:06;;;;;;;;;;;;;;;;;;5031881;28;19940;-58
2021/07/15 14:58:31;;;;;;;;;;;;;;;;;;5031520;28;19913;-60
2021/07/15 15:00:57;;;;;;;;;;;;;;;;;;5031679;28;19913;-58
2021/07/15 15:03:23;;;;;;;;;;;;;;;;;;5028706;28;19913;-60
2021/07/15 15:05:49;;;;;;;;;;;;;;;;;;5031918;28;19913;-58
2021/07/15 15:08:14;;;;;;;;;;;;;;;;;;5031607;28;20526;-59
2021/07/15 15:10:39;;;;;;;;;;;;;;;;;;5031655;28;19913;-59
2021/07/15 15:13:04;;;;;;;;;;;;;;;;;;5031514;28;19917;-57
2021/07/15 15:15:29;;;;;;;;;;;;;;;;;;5031794;28;19939;-57
2021/07/15 15:17:55;;;;;;;;;;;;;;;;;;5031376;28;19917;-60
2021/07/15 15:20:20;;;;;;;;;;;;;;;;;;5031682;28;19985;-60
2021/07/15 15:22:46;;;;;;;;;;;;;;;;;;5031929;28;19923;-59
2021/07/15 15:25:12;;;;;;;;;;;;;;;;;;5032613;28;19917;-60
2021/07/15 15:27:37;;;;;;;;;;;;;;;;;;5032297;28;20322;-59
2021/07/15 15:30:06;;;;;;;;;;;;;;;;;;5031991;28;19979;-61
2021/07/15 15:32:31;;;;;;;;;;;;;;;;;;5031640;28;19967;-59
2021/07/15 15:34:57;;;;;;;;;;;;;;;;;;5031443;28;19918;-60
2021/07/15 15:37:22;;;;;;;;;;;;;;;;;;5031550;28;19913;-58
2021/07/15 15:39:47;;;;;;;;;;;;;;;;;;5031490;28;19913;-61
2021/07/15 15:42:12;;;;;;;;;;;;;;;;;;5030993;28;19917;-59
2021/07/15 15:44:37;;;;;;;;;;;;;;;;;;5031327;28;19988;-60
2021/07/15 15:47:04;;;;;;;;;;;;;;;;;;5034725;28;19913;-58
2021/07/15 15:49:30;;;;;;;;;;;;;;;;;;5032229;28;19913;-60
2021/07/15 15:51:55;;;;;;;;;;;;;;;;;;5035895;28;20395;-58
2021/07/15 15:54:20;;;;;;;;;;;;;;;;;;5035884;28;19952;-59
2021/07/15 15:56:45;;;;;;;;;;;;;;;;;;5035540;28;20302;-58
2021/07/15 15:59:10;;;;;;;;;;;;;;;;;;5035354;28;19939;-60
2021/07/15 16:01:36;;;;;;;;;;;;;;;;;;5035113;28;19913;-59
2021/07/15 16:04:01;;;;;;;;;;;;;;;;;;5035532;28;20172;-58
2021/07/15 16:06:26;;;;;;;;;;;;;;;;;;5035148;28;19913;-58
2021/07/15 16:08:51;;;;;;;;;;;;;;;;;;5034921;28;19967;-60
2021/07/15 16:11:16;;;;;;;;;;;;;;;;;;5034745;28;20303;-59
2021/07/15 16:13:41;;;;;;;;;;;;;;;;;;5034946;28;19955;-60
2021/07/15 16:16:07;;;;;;;;;;;;;;;;;;5034991;28;19917;-60
2021/07/15 16:18:32;;;;;;;;;;;;;;;;;;5034822;28;19966;-59
2021/07/15 16:20:57;;;;;;;;;;;;;;;;;;5034739;28;19920;-58
2021/07/15 16:23:22;;;;;;;;;;;;;;;;;;5034800;28;19913;-59
2021/07/15 16:25:47;;;;;;;;;;;;;;;;;;5034778;28;19913;-59
2021/07/15 16:28:13;;;;;;;;;;;;;;;;;;5034529;28;19952;-60
2021/07/15 16:30:38;;;;;;;;;;;;;;;;;;5034657;28;19996;-58
2021/07/15 16:33:03;;;;;;;;;;;;;;;;;;5034967;28;19920;-60
2021/07/15 16:35:29;;;;;;;;;;;;;;;;;;5034573;28;19917;-60
2021/07/15 16:37:54;;;;;;;;;;;;;;;;;;5034250;28;20349;-58
2021/07/15 16:40:20;;;;;;;;;;;;;;;;;;5034572;28;19917;-60
2021/07/15 16:42:47;;;;;;;;;;;;;;;;;;5033995;28;19960;-57
2021/07/15 16:45:14;;;;;;;;;;;;;;;;;;5034742;28;20007;-58
2021/07/15 16:47:39;;;;;;;;;;;;;;;;;;5034322;28;19917;-58
2021/07/15 16:50:05;;;;;;;;;;;;;;;;;;5034155;28;20276;-59